createdAt,value
2022-11-15T04:55:06.729Z,99614.13
2022-11-15T04:58:00.929Z,99614.09
2022-11-15T05:00:46.308Z,99619.38
2022-11-15T05:03:50.277Z,99611.81
2022-11-15T05:06:35.371Z,99609.28
2022-11-15T05:09:22.666Z,99624.28
2022-11-15T05:12:07.691Z,99614.94
2022-11-15T05:14:52.718Z,99611.50
2022-11-15T05:17:37.860Z,99608.13
2022-11-15T05:20:23.005Z,99607.06
2022-11-15T05:23:08.223Z,99603.41
2022-11-15T05:25:53.495Z,99597.16
2022-11-15T05:28:39.141Z,99598.03
2022-11-15T05:31:25.133Z,99601.47
2022-11-15T05:34:10.515Z,99593.59
2022-11-15T05:36:56.335Z,99598.03
2022-11-15T05:39:41.365Z,99598.09
2022-11-15T05:42:28.093Z,99590.22
2022-11-15T05:45:26.335Z,99585.75
2022-11-15T05:48:13.226Z,99581.47
2022-11-15T05:50:59.073Z,99583.94
2022-11-15T05:53:46.280Z,99587.38
2022-11-15T05:56:34.496Z,99580.41
2022-11-15T05:59:20.372Z,99584.59
2022-11-15T06:02:07.881Z,99580.16
2022-11-15T06:06:02.768Z,99585.44
2022-11-15T06:09:14.351Z,99591.75
2022-11-15T06:11:59.809Z,99597.59
2022-11-15T06:15:10.679Z,99595.84
2022-11-15T06:18:00.024Z,99593.78
2022-11-15T06:20:45.179Z,99599.59
2022-11-15T06:23:34.147Z,99599.09
2022-11-15T06:26:19.050Z,99603.47
2022-11-15T06:29:05.457Z,99606.81
2022-11-15T06:31:50.399Z,99609.38
2022-11-15T06:34:36.805Z,99604.63
2022-11-15T06:37:22.067Z,99610.81
2022-11-15T06:40:09.602Z,99605.47
2022-11-15T06:42:59.236Z,99595.78
2022-11-15T06:45:47.648Z,99594.75
2022-11-15T06:48:34.716Z,99597.59
2022-11-15T06:51:20.301Z,99601.91
2022-11-15T06:54:05.423Z,99602.09
2022-11-15T06:56:56.813Z,99597.88
2022-11-15T06:59:43.213Z,99600.16
2022-11-15T07:02:56.266Z,99596.63
2022-11-15T07:06:38.670Z,99597.13
2022-11-15T07:09:23.752Z,99591.50
2022-11-15T07:12:17.824Z,99604.13
2022-11-15T07:15:02.783Z,99604.75
2022-11-15T07:17:48.084Z,99604.03
2022-11-15T07:20:33.415Z,99598.03
2022-11-15T07:23:18.727Z,99601.16
2022-11-15T07:26:04.080Z,99599.00
2022-11-15T07:28:49.610Z,99597.56
2022-11-15T07:31:34.867Z,99593.97
2022-11-15T07:34:20.019Z,99588.38
2022-11-15T07:37:05.228Z,99587.38
2022-11-15T07:39:50.430Z,99602.44
2022-11-15T07:42:54.124Z,99609.59
2022-11-15T07:45:46.496Z,99604.16
2022-11-15T07:48:43.840Z,99604.31
2022-11-15T07:51:32.877Z,99603.50
2022-11-15T07:54:21.694Z,99604.34
2022-11-15T07:57:08.137Z,99593.66
2022-11-15T07:59:56.129Z,99595.03
2022-11-15T08:02:42.537Z,99597.16
2022-11-15T08:05:27.657Z,99604.50
2022-11-15T08:08:22.019Z,99593.50
2022-11-15T08:11:08.336Z,99601.25
2022-11-15T08:13:59.810Z,99598.44
2022-11-15T08:16:45.161Z,99600.03
2022-11-15T08:19:30.179Z,99599.97
2022-11-15T08:22:15.416Z,99598.22
2022-11-15T08:25:00.640Z,99599.09
2022-11-15T08:27:46.078Z,99596.47
2022-11-15T08:30:35.222Z,99595.53
2022-11-15T08:33:20.692Z,99605.19
2022-11-15T08:36:06.153Z,99611.13
2022-11-15T08:38:51.207Z,99604.47
2022-11-15T08:41:43.418Z,99598.34
2022-11-15T08:44:28.591Z,99601.78
2022-11-15T08:47:17.217Z,99607.00
2022-11-15T08:50:29.539Z,99599.41
2022-11-15T08:53:25.477Z,99596.63
2022-11-15T08:56:15.297Z,99595.34
2022-11-15T08:59:00.582Z,99597.56
2022-11-15T09:01:45.853Z,99596.75
2022-11-15T09:04:46.682Z,99598.47
2022-11-15T09:07:32.761Z,99594.63
2022-11-15T09:10:27.280Z,99591.69
2022-11-15T09:13:12.456Z,99592.00
2022-11-15T09:16:01.600Z,99590.34
2022-11-15T09:18:46.883Z,99590.22
2022-11-15T09:21:32.170Z,99584.75
2022-11-15T09:24:18.357Z,99591.56
2022-11-15T09:27:03.749Z,99587.19
2022-11-15T09:29:48.985Z,99590.56
2022-11-15T09:32:39.072Z,99587.13
2022-11-15T09:35:24.698Z,99570.47
2022-11-15T09:38:09.549Z,99577.84
2022-11-15T09:41:19.719Z,99582.47
2022-11-15T09:44:40.364Z,99581.38
2022-11-15T09:47:56.191Z,99577.41
2022-11-15T09:50:49.236Z,99579.41
2022-11-15T09:53:50.819Z,99573.47
2022-11-15T09:56:26.739Z,99570.72
2022-11-15T09:59:16.419Z,99573.66
2022-11-15T10:01:50.692Z,99570.72
2022-11-15T10:04:18.655Z,99572.31
2022-11-15T10:07:05.228Z,99560.44
2022-11-15T10:09:46.202Z,99550.59
2022-11-15T10:12:16.559Z,99550.47
2022-11-15T10:14:50.301Z,99549.97
2022-11-15T10:17:51.775Z,99546.22
2022-11-15T10:24:25.072Z,99540.81
2022-11-15T10:26:51.621Z,99543.31
2022-11-15T10:29:26.840Z,99546.81
2022-11-15T10:31:54.211Z,99538.53
2022-11-15T10:34:23.829Z,99536.53
2022-11-15T10:36:58.910Z,99537.75
2022-11-15T10:39:26.149Z,99539.63
2022-11-15T10:41:52.784Z,99535.19
2022-11-15T10:44:27.945Z,99530.06
2022-11-15T10:46:57.667Z,99522.06
2022-11-15T10:49:32.333Z,99507.69
2022-11-15T10:52:03.235Z,99508.56
2022-11-15T10:54:35.687Z,99500.84
2022-11-15T10:57:08.674Z,99494.38
2022-11-15T10:59:46.514Z,99492.44
2022-11-15T11:02:38.155Z,99481.09
2022-11-15T11:05:08.205Z,99477.31
2022-11-15T11:07:36.675Z,99459.41
2022-11-15T11:10:49.253Z,99465.72
2022-11-15T11:13:36.217Z,99467.97
2022-11-15T11:16:40.441Z,99457.84
2022-11-15T11:19:38.944Z,99455.19
2022-11-15T11:22:20.448Z,99453.94
2022-11-15T11:25:01.086Z,99444.78
2022-11-15T11:27:44.607Z,99436.47
2022-11-15T11:30:18.420Z,99431.16
2022-11-15T11:33:11.037Z,99436.00
2022-11-15T11:35:49.426Z,99436.63
2022-11-15T11:38:33.822Z,99435.53
2022-11-15T11:41:28.383Z,99442.03
2022-11-15T11:44:20.313Z,99434.34
2022-11-15T11:47:16.038Z,99426.66
2022-11-15T11:49:51.245Z,99437.72
2022-11-15T11:52:32.291Z,99424.41
2022-11-15T11:55:39.585Z,99421.72
2022-11-15T11:58:24.964Z,99418.84
2022-11-15T12:01:01.015Z,99422.66
2022-11-15T12:03:43.022Z,99416.03
2022-11-15T12:06:49.173Z,99406.06
2022-11-15T12:10:05.010Z,99398.22
2022-11-15T12:12:55.430Z,99405.94
2022-11-15T12:15:56.932Z,99396.84
2022-11-15T12:18:59.294Z,99386.81
2022-11-15T12:21:50.695Z,99386.63
2022-11-15T12:24:29.968Z,99390.66
2022-11-15T12:27:38.587Z,99387.69
2022-11-15T12:30:14.957Z,99382.94
2022-11-15T12:32:51.517Z,99382.25
2022-11-15T12:35:26.506Z,99380.72
2022-11-15T12:37:56.316Z,99373.53
2022-11-15T12:40:31.287Z,99369.13
2022-11-15T12:42:58.027Z,99371.19
2022-11-15T12:45:28.932Z,99367.75
2022-11-15T12:48:25.439Z,99370.00
2022-11-15T12:50:51.878Z,99359.75
2022-11-15T12:53:24.626Z,99357.63
2022-11-15T12:56:12.882Z,99344.06
2022-11-15T12:59:07.557Z,99341.28
2022-11-15T13:01:40.047Z,99335.59
2022-11-15T13:04:27.937Z,99334.91
2022-11-15T13:07:06.098Z,99331.50
2022-11-15T13:09:38.489Z,99329.47
2022-11-15T13:12:35.186Z,99329.25
2022-11-15T13:15:01.732Z,99320.50
2022-11-15T13:17:34.760Z,99321.75
2022-11-15T13:20:15.139Z,99320.06
2022-11-15T13:23:03.315Z,99314.00
2022-11-15T13:26:09.038Z,99318.28
2022-11-15T13:29:07.891Z,99307.63
2022-11-15T13:31:41.287Z,99304.94
2022-11-15T13:34:52.287Z,99297.75
2022-11-15T13:38:09.191Z,99296.47
2022-11-15T13:40:37.507Z,99294.50
2022-11-15T13:43:28.369Z,99289.75
2022-11-15T13:46:22.712Z,99290.09
2022-11-15T13:49:13.585Z,99283.84
2022-11-15T13:51:53.187Z,99280.78
2022-11-15T13:54:31.862Z,99280.28
2022-11-15T13:57:10.421Z,99275.00
2022-11-15T13:59:53.709Z,99269.03
2022-11-15T14:02:25.905Z,99272.19
2022-11-15T14:04:54.965Z,99267.66
2022-11-15T14:07:26.382Z,99269.47
2022-11-15T14:10:18.566Z,99264.94
2022-11-15T14:12:52.485Z,99262.19
2022-11-15T14:15:28.370Z,99256.25
2022-11-15T14:17:55.106Z,99247.44
2022-11-15T14:20:34.903Z,99246.50
2022-11-15T14:23:24.457Z,99235.19
2022-11-15T14:25:56.142Z,99242.69
2022-11-15T14:28:25.560Z,99238.00
2022-11-15T14:30:54.648Z,99224.53
2022-11-15T14:33:31.263Z,99221.22
2022-11-15T14:35:59.627Z,99216.88
2022-11-15T14:38:28.240Z,99223.34
2022-11-15T14:40:56.652Z,99225.31
2022-11-15T14:43:23.237Z,99216.72
2022-11-15T14:45:49.917Z,99207.16
2022-11-15T14:48:16.413Z,99211.59
2022-11-15T14:50:45.219Z,99202.13
2022-11-15T14:53:17.169Z,99197.09
2022-11-15T14:55:44.237Z,99191.28
2022-11-15T14:58:10.942Z,99184.19
2022-11-15T15:00:39.657Z,99177.91
2022-11-15T15:03:07.462Z,99170.31
2022-11-15T15:05:39.788Z,99172.94
2022-11-15T15:08:07.566Z,99167.94
2022-11-15T15:10:41.477Z,99167.41
2022-11-15T15:13:20.504Z,99169.19
2022-11-15T15:15:48.562Z,99167.56
2022-11-15T15:18:21.046Z,99160.78
2022-11-15T15:20:57.718Z,99163.50
2022-11-15T15:23:26.446Z,99154.72
2022-11-15T15:25:53.833Z,99147.81
2022-11-15T15:28:26.681Z,99137.44
2022-11-15T15:30:56.545Z,99140.22
2022-11-15T15:33:23.048Z,99126.66
2022-11-15T15:35:50.077Z,99122.41
2022-11-15T15:38:16.818Z,99133.06
2022-11-15T15:40:43.322Z,99129.53
2022-11-15T15:43:10.164Z,99124.84
2022-11-15T15:45:42.367Z,99124.84
2022-11-15T15:48:17.350Z,99115.97
2022-11-15T15:50:50.120Z,99117.03
2022-11-15T15:53:18.651Z,99112.50
2022-11-15T15:55:45.162Z,99118.19
2022-11-15T15:58:12.580Z,99102.91
2022-11-15T16:00:40.297Z,99113.53
2022-11-15T16:03:08.837Z,99104.53
2022-11-15T16:05:35.403Z,99097.63
2022-11-15T16:08:05.316Z,99098.78
2022-11-15T16:10:35.336Z,99102.13
2022-11-15T16:13:02.933Z,99101.25
2022-11-15T16:15:31.750Z,99104.00
2022-11-15T16:18:00.387Z,99101.75
2022-11-15T16:20:32.722Z,99094.28
2022-11-15T16:23:04.521Z,99097.34
2022-11-15T16:25:45.001Z,99089.66
2022-11-15T16:28:38.288Z,99085.53
2022-11-15T16:31:19.188Z,99089.47
2022-11-15T16:33:46.459Z,99092.72
2022-11-15T16:36:49.231Z,99087.56
2022-11-15T16:39:20.723Z,99081.78
2022-11-15T16:41:47.800Z,99079.25
2022-11-15T16:44:14.823Z,99074.75
2022-11-15T16:46:43.085Z,99070.41
2022-11-15T16:49:15.005Z,99072.56
2022-11-15T16:51:42.544Z,99078.78
2022-11-15T16:54:09.480Z,99076.41
2022-11-15T16:56:36.414Z,99074.06
2022-11-15T16:59:13.086Z,99068.09
2022-11-15T17:01:47.014Z,99065.31
2022-11-15T17:04:13.644Z,99058.16
2022-11-15T17:06:41.514Z,99049.72
2022-11-15T17:09:13.569Z,99050.84
2022-11-15T17:11:41.512Z,99046.31
2022-11-15T17:14:08.382Z,99053.69
2022-11-15T17:16:36.032Z,99049.22
2022-11-15T17:19:02.484Z,99046.94
2022-11-15T17:21:33.402Z,99043.44
2022-11-15T17:24:00.553Z,99041.19
2022-11-15T17:26:33.101Z,99044.78
2022-11-15T17:29:01.595Z,99033.16
2022-11-15T17:31:30.680Z,99035.25
2022-11-15T17:33:57.155Z,99031.38
2022-11-15T17:36:23.585Z,99033.72
2022-11-15T17:38:56.580Z,99018.38
2022-11-15T17:41:26.795Z,99017.75
2022-11-15T17:43:53.348Z,99024.72
2022-11-15T17:46:21.357Z,99015.72
2022-11-15T17:48:48.741Z,99018.75
2022-11-15T17:51:18.207Z,99015.41
2022-11-15T17:53:46.495Z,99017.22
2022-11-15T17:56:15.704Z,99011.78
2022-11-15T17:58:42.734Z,99016.09
2022-11-15T18:01:19.182Z,99013.41
2022-11-15T18:03:46.357Z,99009.69
2022-11-15T18:06:13.877Z,99007.81
2022-11-15T18:08:43.350Z,99000.56
2022-11-15T18:11:20.786Z,98999.69
2022-11-15T18:13:52.330Z,98991.03
2022-11-15T18:16:22.816Z,98990.47
2022-11-15T18:18:49.421Z,98990.78
2022-11-15T18:21:21.891Z,98988.16
2022-11-15T18:23:49.938Z,98992.88
2022-11-15T18:26:17.491Z,98989.88
2022-11-15T18:28:47.248Z,98981.19
2022-11-15T18:31:17.991Z,98982.13
2022-11-15T18:33:45.024Z,98984.22
2022-11-15T18:36:13.722Z,98979.63
2022-11-15T18:38:40.184Z,98975.97
2022-11-15T18:41:13.728Z,98978.22
2022-11-15T18:43:41.275Z,98977.97
2022-11-15T18:46:11.611Z,98971.38
2022-11-15T18:48:39.880Z,98969.50
2022-11-15T18:51:08.305Z,98967.13
2022-11-15T18:53:36.309Z,98961.69
2022-11-15T18:56:08.811Z,98961.00
2022-11-15T18:58:42.018Z,98963.97
2022-11-15T19:01:14.751Z,98960.78
2022-11-15T19:03:43.719Z,98961.19
2022-11-15T19:06:12.893Z,98953.91
2022-11-15T19:08:40.640Z,98946.59
2022-11-15T19:11:31.576Z,98949.25
2022-11-15T19:14:03.055Z,98951.09
2022-11-15T19:16:33.208Z,98948.44
2022-11-15T19:19:02.813Z,98938.25
2022-11-15T19:21:30.968Z,98941.34
2022-11-15T19:23:58.690Z,98943.16
2022-11-15T19:26:26.536Z,98947.22
2022-11-15T19:28:55.678Z,98948.97
2022-11-15T19:31:28.853Z,98947.84
2022-11-15T19:33:56.031Z,98945.31
2022-11-15T19:36:44.290Z,98936.78
2022-11-15T19:39:14.048Z,98943.19
2022-11-15T19:41:42.784Z,98941.47
2022-11-15T19:44:12.050Z,98937.81
2022-11-15T19:46:40.651Z,98931.53
2022-11-15T19:49:10.320Z,98930.41
2022-11-15T19:51:37.554Z,98928.56
2022-11-15T19:54:08.655Z,98926.00
2022-11-15T19:56:39.724Z,98932.13
2022-11-15T19:59:34.215Z,98923.44
2022-11-15T20:02:00.671Z,98920.81
2022-11-15T20:04:27.257Z,98922.16
2022-11-15T20:06:53.756Z,98913.78
2022-11-15T20:09:20.887Z,98914.09
2022-11-15T20:11:47.356Z,98917.66
2022-11-15T20:14:16.006Z,98913.50
2022-11-15T20:16:42.834Z,98908.97
2022-11-15T20:19:09.560Z,98910.06
2022-11-15T20:21:37.252Z,98903.25
2022-11-15T20:24:04.886Z,98905.59
2022-11-15T20:26:32.792Z,98906.44
2022-11-15T20:29:02.043Z,98901.84
2022-11-15T20:31:29.494Z,98896.91
2022-11-15T20:33:56.016Z,98898.09
2022-11-15T20:36:22.512Z,98899.72
2022-11-15T20:38:48.919Z,98892.91
2022-11-15T20:41:15.453Z,98889.81
2022-11-15T20:43:43.655Z,98888.25
2022-11-15T20:46:11.999Z,98889.06
2022-11-15T20:48:39.170Z,98882.66
2022-11-15T20:51:15.031Z,98878.78
2022-11-15T20:53:43.319Z,98873.44
2022-11-15T20:56:13.985Z,98879.19
2022-11-15T20:58:40.891Z,98877.03
2022-11-15T21:01:08.815Z,98867.91
2022-11-15T21:03:35.640Z,98871.53
2022-11-15T21:06:02.933Z,98868.34
2022-11-15T21:08:49.369Z,98864.25
2022-11-15T21:11:34.481Z,98863.47
2022-11-15T21:14:03.936Z,98856.22
2022-11-15T21:16:34.670Z,98854.28
2022-11-15T21:19:01.087Z,98846.78
2022-11-15T21:21:27.566Z,98844.06
2022-11-15T21:23:53.978Z,98849.09
2022-11-15T21:26:20.385Z,98835.00
2022-11-15T21:28:46.887Z,98835.63
2022-11-15T21:31:13.355Z,98838.88
2022-11-15T21:33:39.852Z,98837.47
2022-11-15T21:36:06.679Z,98838.47
2022-11-15T21:38:33.245Z,98831.75
2022-11-15T21:41:03.491Z,98832.44
2022-11-15T21:43:29.884Z,98828.41
2022-11-15T21:46:00.084Z,98824.13
2022-11-15T21:48:28.101Z,98829.66
2022-11-15T21:50:56.544Z,98823.44
2022-11-15T21:53:23.055Z,98826.06
2022-11-15T21:55:49.490Z,98817.97
2022-11-15T21:58:15.918Z,98814.34
2022-11-15T22:01:02.107Z,98816.75
2022-11-15T22:03:29.089Z,98812.91
2022-11-15T22:05:55.522Z,98813.25
2022-11-15T22:08:22.742Z,98808.13
2022-11-15T22:10:49.750Z,98808.13
2022-11-15T22:13:16.572Z,98803.28
2022-11-15T22:15:46.709Z,98803.72
2022-11-15T22:18:13.990Z,98802.31
2022-11-15T22:20:45.097Z,98800.34
2022-11-15T22:23:12.038Z,98797.53
2022-11-15T22:25:38.583Z,98795.91
2022-11-15T22:28:05.251Z,98796.69
2022-11-15T22:30:31.810Z,98799.06
2022-11-15T22:32:58.372Z,98793.97
2022-11-15T22:35:25.044Z,98796.97
2022-11-15T22:37:52.718Z,98789.91
2022-11-15T22:40:19.345Z,98787.19
2022-11-15T22:42:45.843Z,98784.47
2022-11-15T22:45:12.401Z,98785.50
2022-11-15T22:47:38.918Z,98773.44
2022-11-15T22:50:06.532Z,98772.50
2022-11-15T22:52:33.229Z,98781.31
2022-11-15T22:54:59.704Z,98769.19
2022-11-15T22:57:26.184Z,98772.56
2022-11-15T22:59:52.771Z,98762.28
